createdAt,value
2024-01-29T00:00:25.387Z,91.80
2024-01-29T00:01:25.381Z,91.80
2024-01-29T00:02:25.323Z,91.61
2024-01-29T00:03:25.475Z,91.52
2024-01-29T00:04:25.694Z,91.99
2024-01-29T00:05:25.392Z,92.28
2024-01-29T00:06:25.554Z,92.18
2024-01-29T00:07:25.437Z,91.99
2024-01-29T00:08:25.433Z,92.18
2024-01-29T00:09:25.463Z,92.09
2024-01-29T00:10:25.467Z,91.90
2024-01-29T00:11:25.562Z,91.99
2024-01-29T00:12:25.571Z,91.80
2024-01-29T00:13:25.521Z,92.18
2024-01-29T00:14:25.539Z,91.52
2024-01-29T00:15:25.574Z,91.52
2024-01-29T00:16:25.571Z,91.80
2024-01-29T00:17:25.618Z,91.05
2024-01-29T00:18:25.660Z,91.05
2024-01-29T00:19:25.802Z,91.14
2024-01-29T00:20:25.638Z,91.52
2024-01-29T00:21:25.673Z,91.90
2024-01-29T00:22:25.710Z,91.42
2024-01-29T00:23:25.719Z,91.24
2024-01-29T00:24:25.737Z,91.42
2024-01-29T00:25:25.734Z,90.95
2024-01-29T00:26:25.754Z,91.24
2024-01-29T00:27:25.788Z,91.33
2024-01-29T00:28:25.791Z,91.38
2024-01-29T00:29:25.819Z,91.05
2024-01-29T00:30:25.839Z,91.14
2024-01-29T00:31:25.922Z,91.09
2024-01-29T00:32:25.936Z,91.09
2024-01-29T00:33:26.049Z,91.19
2024-01-29T00:34:25.947Z,90.71
2024-01-29T00:35:25.911Z,90.33
2024-01-29T00:36:25.961Z,90.33
2024-01-29T00:37:25.949Z,90.52
2024-01-29T00:38:25.970Z,90.62
2024-01-29T00:39:26.033Z,90.43
2024-01-29T00:40:26.005Z,90.38
2024-01-29T00:41:26.051Z,90.48
2024-01-29T00:42:26.055Z,90.57
2024-01-29T00:43:26.060Z,90.71
2024-01-29T00:44:26.091Z,90.71
2024-01-29T00:45:26.118Z,90.67
2024-01-29T00:46:26.113Z,90.10
2024-01-29T00:47:26.180Z,90.67
2024-01-29T00:48:26.214Z,90.19
2024-01-29T00:49:26.248Z,90.86
2024-01-29T00:50:26.193Z,90.67
2024-01-29T00:51:26.230Z,90.86
2024-01-29T00:52:26.228Z,90.86
2024-01-29T00:53:26.244Z,90.95
2024-01-29T00:54:26.290Z,91.05
2024-01-29T00:55:26.293Z,90.86
2024-01-29T00:56:26.291Z,90.76
2024-01-29T00:57:26.340Z,90.76
2024-01-29T00:58:26.345Z,90.67
2024-01-29T00:59:26.347Z,90.67
2024-01-29T01:00:26.383Z,90.48
2024-01-29T01:01:26.463Z,90.95
2024-01-29T01:02:26.401Z,90.95
2024-01-29T01:03:26.498Z,90.86
2024-01-29T01:04:26.513Z,91.05
2024-01-29T01:05:26.599Z,91.33
2024-01-29T01:06:26.519Z,91.33
2024-01-29T01:07:26.490Z,91.33
2024-01-29T01:08:26.511Z,91.80
2024-01-29T01:09:26.545Z,91.05
2024-01-29T01:10:26.545Z,91.42
2024-01-29T01:11:26.560Z,91.14
2024-01-29T01:12:26.648Z,91.42
2024-01-29T01:13:26.615Z,91.05
2024-01-29T01:14:26.632Z,91.14
2024-01-29T01:15:26.656Z,91.05
2024-01-29T01:16:26.654Z,91.61
2024-01-29T01:17:26.704Z,91.05
2024-01-29T01:18:26.759Z,91.52
2024-01-29T01:19:26.833Z,91.14
2024-01-29T01:20:26.725Z,91.71
2024-01-29T01:21:26.783Z,91.61
2024-01-29T01:22:26.771Z,91.14
2024-01-29T01:23:26.779Z,91.71
2024-01-29T01:24:26.836Z,91.71
2024-01-29T01:25:26.817Z,91.42
2024-01-29T01:26:26.835Z,91.42
2024-01-29T01:27:26.884Z,91.05
2024-01-29T01:28:26.943Z,91.42
2024-01-29T01:29:26.889Z,91.24
2024-01-29T01:30:26.928Z,91.14
2024-01-29T01:31:26.924Z,91.52
2024-01-29T01:32:27.047Z,91.33
2024-01-29T01:33:27.026Z,91.33
2024-01-29T01:34:27.138Z,91.33
2024-01-29T01:35:27.102Z,91.05
2024-01-29T01:36:27.117Z,91.42
2024-01-29T01:37:27.027Z,91.52
2024-01-29T01:38:27.077Z,91.42
2024-01-29T01:39:27.150Z,91.61
2024-01-29T01:40:27.163Z,91.80
2024-01-29T01:41:27.120Z,92.09
2024-01-29T01:42:27.260Z,92.18
2024-01-29T01:43:27.145Z,92.18
2024-01-29T01:44:27.234Z,91.99
2024-01-29T01:45:27.313Z,92.09
2024-01-29T01:46:27.444Z,91.42
2024-01-29T01:47:27.250Z,92.09
2024-01-29T01:48:27.442Z,91.80
2024-01-29T01:49:27.416Z,91.90
2024-01-29T01:50:27.255Z,92.18
2024-01-29T01:51:27.336Z,91.71
2024-01-29T01:52:27.296Z,91.52
2024-01-29T01:53:27.328Z,91.80
2024-01-29T01:54:27.448Z,91.05
2024-01-29T01:55:27.385Z,91.33
2024-01-29T01:56:27.381Z,91.33
2024-01-29T01:57:27.445Z,91.33
2024-01-29T01:58:27.405Z,90.95
2024-01-29T01:59:27.422Z,91.24
2024-01-29T02:00:27.478Z,91.14
2024-01-29T02:01:27.550Z,91.52
2024-01-29T02:02:27.516Z,91.24
2024-01-29T02:03:27.555Z,91.14
2024-01-29T02:04:27.629Z,91.52
2024-01-29T02:05:27.572Z,91.52
2024-01-29T02:06:27.598Z,91.05
2024-01-29T02:07:27.644Z,91.52
2024-01-29T02:08:27.584Z,91.24
2024-01-29T02:09:27.631Z,91.33
2024-01-29T02:10:27.616Z,91.52
2024-01-29T02:11:27.643Z,91.61
2024-01-29T02:12:27.704Z,91.52
2024-01-29T02:13:27.685Z,91.80
2024-01-29T02:14:27.717Z,91.52
2024-01-29T02:15:27.728Z,91.52
2024-01-29T02:16:27.739Z,91.47
2024-01-29T02:17:27.772Z,91.57
2024-01-29T02:18:27.841Z,91.47
2024-01-29T02:19:27.862Z,91.66
2024-01-29T02:20:27.803Z,91.47
2024-01-29T02:21:27.853Z,91.47
2024-01-29T02:22:27.847Z,91.47
2024-01-29T02:23:27.865Z,91.09
2024-01-29T02:24:27.923Z,92.23
2024-01-29T02:25:27.904Z,92.14
2024-01-29T02:26:27.902Z,91.95
2024-01-29T02:27:27.991Z,91.66
2024-01-29T02:28:27.938Z,91.85
2024-01-29T02:29:27.969Z,91.76
2024-01-29T02:30:28.018Z,91.66
2024-01-29T02:31:28.001Z,91.66
2024-01-29T02:32:28.007Z,92.04
2024-01-29T02:33:28.089Z,92.04
2024-01-29T02:34:28.267Z,91.76
2024-01-29T02:35:28.063Z,91.76
2024-01-29T02:36:28.113Z,91.76
2024-01-29T02:37:28.107Z,91.76
2024-01-29T02:38:28.115Z,91.76
2024-01-29T02:39:28.186Z,91.66
2024-01-29T02:40:28.157Z,91.66
2024-01-29T02:41:28.167Z,91.66
2024-01-29T02:42:28.207Z,91.95
2024-01-29T02:43:28.207Z,92.04
2024-01-29T02:44:28.258Z,91.95
2024-01-29T02:45:28.246Z,91.66
2024-01-29T02:46:28.256Z,91.57
2024-01-29T02:47:28.324Z,92.23
2024-01-29T02:48:28.366Z,91.66
2024-01-29T02:49:28.361Z,91.95
2024-01-29T02:50:28.327Z,91.95
2024-01-29T02:51:28.384Z,91.57
2024-01-29T02:52:28.364Z,91.95
2024-01-29T02:53:28.384Z,91.57
2024-01-29T02:54:28.411Z,91.66
2024-01-29T02:55:28.455Z,92.04
2024-01-29T02:56:28.442Z,91.76
2024-01-29T02:57:28.497Z,92.04
2024-01-29T02:58:28.467Z,92.14
2024-01-29T02:59:28.490Z,91.95
2024-01-29T03:00:28.601Z,92.04
2024-01-29T03:01:28.581Z,92.04
2024-01-29T03:02:28.541Z,92.14
2024-01-29T03:03:28.632Z,92.23
2024-01-29T03:04:28.665Z,92.33
2024-01-29T03:05:28.635Z,92.33
2024-01-29T03:06:28.646Z,92.14
2024-01-29T03:07:28.632Z,92.04
2024-01-29T03:08:28.644Z,92.14
2024-01-29T03:09:28.694Z,92.33
2024-01-29T03:10:28.684Z,92.42
2024-01-29T03:11:28.696Z,92.33
2024-01-29T03:12:28.729Z,92.23
2024-01-29T03:13:28.749Z,92.23
2024-01-29T03:14:28.754Z,92.23
2024-01-29T03:15:28.841Z,92.23
2024-01-29T03:16:28.785Z,92.14
2024-01-29T03:17:28.807Z,92.04
2024-01-29T03:18:28.927Z,92.14
2024-01-29T03:19:28.935Z,92.42
2024-01-29T03:20:28.864Z,92.04
2024-01-29T03:21:28.934Z,92.04
2024-01-29T03:22:28.891Z,92.14
2024-01-29T03:23:28.908Z,92.14
2024-01-29T03:24:28.936Z,91.47
2024-01-29T03:25:28.949Z,91.76
2024-01-29T03:26:28.961Z,91.85
2024-01-29T03:27:29.004Z,91.71
2024-01-29T03:28:29.010Z,91.71
2024-01-29T03:29:29.025Z,91.81
2024-01-29T03:30:29.058Z,91.43
2024-01-29T03:31:29.063Z,92.00
2024-01-29T03:32:29.091Z,91.90
2024-01-29T03:33:29.180Z,91.90
2024-01-29T03:34:29.174Z,91.90
2024-01-29T03:35:29.131Z,91.71
2024-01-29T03:36:29.159Z,91.52
2024-01-29T03:37:29.155Z,91.90
2024-01-29T03:38:29.179Z,91.81
2024-01-29T03:39:29.200Z,91.05
2024-01-29T03:40:29.208Z,91.24
2024-01-29T03:41:29.225Z,91.33
2024-01-29T03:42:29.258Z,91.24
2024-01-29T03:43:29.256Z,91.05
2024-01-29T03:44:29.279Z,91.14
2024-01-29T03:45:29.365Z,91.24
2024-01-29T03:46:29.321Z,91.24
2024-01-29T03:47:29.334Z,90.95
2024-01-29T03:48:29.415Z,91.71
2024-01-29T03:49:29.406Z,90.86
2024-01-29T03:50:29.466Z,90.95
2024-01-29T03:51:29.425Z,90.95
2024-01-29T03:52:29.418Z,90.95
2024-01-29T03:53:29.431Z,90.95
2024-01-29T03:54:29.533Z,90.95
2024-01-29T03:55:29.531Z,91.62
2024-01-29T03:56:29.487Z,91.33
2024-01-29T03:57:29.528Z,91.71
2024-01-29T03:58:29.511Z,91.43
2024-01-29T03:59:29.542Z,92.19
2024-01-29T04:00:29.607Z,91.90
2024-01-29T04:01:29.834Z,91.90
2024-01-29T04:02:29.585Z,92.04
2024-01-29T04:03:29.725Z,92.14
2024-01-29T04:04:29.735Z,92.33
2024-01-29T04:05:29.710Z,92.14
2024-01-29T04:06:29.785Z,92.04
2024-01-29T04:07:29.735Z,92.14
2024-01-29T04:08:29.693Z,92.14
2024-01-29T04:09:29.763Z,92.23
2024-01-29T04:10:29.728Z,91.95
2024-01-29T04:11:29.748Z,92.14
2024-01-29T04:12:29.796Z,92.52
2024-01-29T04:13:29.776Z,92.42
2024-01-29T04:14:29.813Z,92.33
2024-01-29T04:15:29.821Z,92.33
2024-01-29T04:16:29.829Z,92.04
2024-01-29T04:17:29.875Z,92.52
2024-01-29T04:18:30.004Z,92.52
2024-01-29T04:19:29.954Z,92.04
2024-01-29T04:20:29.904Z,91.95
2024-01-29T04:21:29.952Z,92.04
2024-01-29T04:22:29.950Z,92.33
2024-01-29T04:23:29.948Z,92.33
2024-01-29T04:24:37.190Z,92.33
2024-01-29T04:26:33.979Z,91.85
2024-01-29T04:27:33.994Z,92.42
2024-01-29T04:29:37.970Z,92.23
2024-01-29T04:30:38.001Z,92.23
2024-01-29T04:32:42.032Z,92.33
2024-01-29T04:33:42.017Z,92.14
2024-01-29T04:35:46.010Z,91.47
2024-01-29T04:36:46.041Z,91.66
2024-01-29T04:38:50.004Z,91.85
2024-01-29T04:39:50.034Z,91.95
2024-01-29T04:41:54.083Z,91.95
2024-01-29T04:42:54.024Z,91.95
2024-01-29T04:44:58.031Z,91.71
2024-01-29T04:45:58.068Z,91.85
2024-01-29T04:47:51.484Z,91.95
2024-01-29T04:48:51.534Z,92.09
2024-01-29T04:49:51.520Z,91.90
2024-01-29T04:50:51.536Z,91.52
2024-01-29T04:51:51.539Z,91.62
2024-01-29T04:52:51.532Z,91.81
2024-01-29T04:53:51.542Z,91.14
2024-01-29T04:54:51.623Z,90.95
2024-01-29T04:55:51.573Z,90.95
2024-01-29T04:56:51.598Z,90.95
2024-01-29T04:57:51.666Z,91.62
2024-01-29T04:58:51.640Z,91.81
2024-01-29T04:59:51.643Z,91.62
2024-01-29T05:00:51.756Z,91.71
2024-01-29T05:01:51.762Z,91.71
2024-01-29T05:02:51.697Z,91.62
2024-01-29T05:03:51.816Z,90.95
2024-01-29T05:04:51.768Z,91.71
2024-01-29T05:05:51.831Z,90.95
2024-01-29T05:06:51.797Z,91.43
2024-01-29T05:07:51.781Z,91.33
2024-01-29T05:08:51.819Z,91.33
2024-01-29T05:09:51.858Z,90.86
2024-01-29T05:10:51.843Z,91.05
2024-01-29T05:11:51.855Z,91.14
2024-01-29T05:12:51.928Z,91.81
2024-01-29T05:13:51.893Z,91.81
2024-01-29T05:14:51.906Z,91.62
2024-01-29T05:15:51.971Z,91.71
2024-01-29T05:16:51.948Z,92.09
2024-01-29T05:17:52.024Z,91.52
2024-01-29T05:18:52.099Z,92.00
2024-01-29T05:19:52.123Z,92.19
2024-01-29T05:20:52.010Z,92.00
2024-01-29T05:21:52.066Z,91.24
2024-01-29T05:22:52.059Z,91.71
2024-01-29T05:23:52.060Z,91.43
2024-01-29T05:24:52.132Z,91.33
2024-01-29T05:25:52.102Z,91.71
2024-01-29T05:26:52.136Z,92.09
2024-01-29T05:27:52.156Z,92.09
2024-01-29T05:28:52.173Z,92.09
2024-01-29T05:29:52.167Z,92.09
2024-01-29T05:30:52.252Z,92.19
2024-01-29T05:31:52.202Z,91.90
2024-01-29T05:32:52.272Z,91.90
2024-01-29T05:33:52.324Z,91.81
2024-01-29T05:34:52.312Z,91.71
2024-01-29T05:35:52.276Z,91.90
2024-01-29T05:36:52.315Z,91.71
2024-01-29T05:37:52.307Z,91.05
2024-01-29T05:38:52.321Z,91.14
2024-01-29T05:39:52.379Z,91.71
2024-01-29T05:40:52.371Z,91.33
2024-01-29T05:41:52.378Z,91.33
2024-01-29T05:42:52.443Z,91.43
2024-01-29T05:43:52.410Z,90.86
2024-01-29T05:44:52.426Z,91.05
2024-01-29T05:45:52.468Z,91.43
2024-01-29T05:46:52.464Z,91.33
2024-01-29T05:47:52.721Z,91.33
2024-01-29T05:48:52.670Z,91.62
2024-01-29T05:49:52.645Z,91.43
2024-01-29T05:50:54.770Z,91.14
2024-01-29T05:51:52.576Z,91.24
2024-01-29T05:52:52.561Z,91.43
2024-01-29T05:53:52.583Z,91.33
2024-01-29T05:54:52.633Z,91.14
2024-01-29T05:55:52.614Z,91.71
2024-01-29T05:56:52.637Z,91.14
2024-01-29T05:57:52.697Z,91.05
2024-01-29T05:58:52.666Z,91.62
2024-01-29T05:59:52.681Z,90.95
2024-01-29T06:00:52.838Z,91.05
2024-01-29T06:01:52.841Z,90.95
2024-01-29T06:02:52.794Z,91.24
2024-01-29T06:03:52.814Z,90.86
2024-01-29T06:04:52.798Z,90.86
2024-01-29T06:05:52.852Z,90.86
2024-01-29T06:06:52.964Z,90.67
2024-01-29T06:07:52.888Z,90.77
2024-01-29T06:08:52.843Z,90.77
2024-01-29T06:09:52.898Z,90.58
2024-01-29T06:10:52.872Z,90.48
2024-01-29T06:11:52.888Z,90.67
2024-01-29T06:12:52.957Z,90.29
2024-01-29T06:13:52.936Z,90.39
2024-01-29T06:14:52.951Z,89.91
2024-01-29T06:15:52.987Z,90.01
2024-01-29T06:16:52.986Z,90.01
2024-01-29T06:17:53.137Z,90.20
2024-01-29T06:18:53.267Z,90.10
2024-01-29T06:20:03.997Z,90.10
2024-01-29T06:20:53.130Z,90.01
2024-01-29T06:21:53.086Z,90.01
2024-01-29T06:22:53.077Z,89.72
2024-01-29T06:23:53.096Z,89.72
2024-01-29T06:24:53.137Z,89.25
2024-01-29T06:25:53.156Z,89.44
2024-01-29T06:26:53.165Z,89.44
2024-01-29T06:27:53.275Z,89.44
2024-01-29T06:28:53.188Z,89.72
2024-01-29T06:29:53.203Z,89.72
2024-01-29T06:30:53.248Z,89.72
2024-01-29T06:31:53.234Z,90.01
2024-01-29T06:32:53.307Z,89.72
2024-01-29T06:33:54.438Z,89.82
2024-01-29T06:34:53.383Z,89.82
2024-01-29T06:35:53.317Z,89.44
2024-01-29T06:36:53.365Z,89.91
2024-01-29T06:37:53.336Z,89.63
2024-01-29T06:38:53.362Z,89.82
2024-01-29T06:39:53.426Z,89.72
2024-01-29T06:40:53.390Z,89.34
2024-01-29T06:41:53.404Z,89.34
2024-01-29T06:42:53.458Z,89.44
2024-01-29T06:43:53.441Z,89.25
2024-01-29T06:44:53.457Z,89.63
2024-01-29T06:45:53.500Z,89.82
2024-01-29T06:46:53.490Z,89.82
2024-01-29T06:47:53.532Z,89.91
2024-01-29T06:48:53.610Z,89.34
2024-01-29T06:49:53.669Z,89.34
2024-01-29T06:50:53.587Z,89.44
2024-01-29T06:51:53.571Z,89.34
2024-01-29T06:52:53.612Z,89.15
2024-01-29T06:53:53.635Z,88.87
2024-01-29T06:54:53.676Z,88.96
2024-01-29T06:55:53.675Z,88.68
2024-01-29T06:56:53.666Z,88.49
2024-01-29T06:57:53.696Z,88.49
2024-01-29T06:58:53.697Z,88.11
2024-01-29T06:59:53.712Z,87.92
2024-01-29T07:00:53.856Z,88.30
2024-01-29T07:01:53.773Z,88.07
2024-01-29T07:02:53.834Z,87.78
2024-01-29T07:03:53.907Z,87.64
2024-01-29T07:04:53.801Z,87.50
2024-01-29T07:05:53.862Z,87.59
2024-01-29T07:06:53.911Z,86.55
2024-01-29T07:07:53.850Z,85.99
2024-01-29T07:08:53.875Z,86.08
2024-01-29T07:09:53.913Z,85.99
2024-01-29T07:10:53.901Z,85.99
2024-01-29T07:11:53.924Z,86.18
2024-01-29T07:12:53.955Z,86.36
2024-01-29T07:13:53.951Z,86.08
2024-01-29T07:14:53.965Z,85.89
2024-01-29T07:15:54.052Z,85.80
2024-01-29T07:16:53.995Z,85.32
2024-01-29T07:17:54.033Z,85.51
2024-01-29T07:18:54.068Z,85.61
2024-01-29T07:19:54.536Z,85.13
2024-01-29T07:20:54.071Z,84.75
2024-01-29T07:21:54.145Z,84.66
2024-01-29T07:22:54.103Z,85.70
2024-01-29T07:23:54.123Z,85.23
2024-01-29T07:24:54.183Z,85.32
2024-01-29T07:25:54.171Z,85.61
2024-01-29T07:26:54.169Z,84.66
2024-01-29T07:27:54.222Z,84.66
2024-01-29T07:28:54.203Z,85.04
2024-01-29T07:29:54.221Z,84.66
2024-01-29T07:30:54.289Z,84.85
2024-01-29T07:31:54.438Z,84.66
2024-01-29T07:32:54.342Z,84.94
2024-01-29T07:33:54.441Z,85.04
2024-01-29T07:34:54.350Z,84.85
2024-01-29T07:35:54.347Z,84.85
2024-01-29T07:36:54.361Z,84.66
2024-01-29T07:37:54.394Z,84.75
2024-01-29T07:38:54.378Z,85.04
2024-01-29T07:39:54.404Z,83.90
2024-01-29T07:40:54.411Z,84.38
2024-01-29T07:41:54.428Z,84.47
2024-01-29T07:42:54.461Z,84.75
2024-01-29T07:43:54.494Z,84.75
2024-01-29T07:44:54.474Z,85.08
2024-01-29T07:45:54.522Z,85.08
2024-01-29T07:46:54.507Z,84.00
2024-01-29T07:47:54.587Z,84.94
2024-01-29T07:48:54.625Z,85.46
2024-01-29T07:49:54.578Z,85.08
2024-01-29T07:50:54.589Z,84.70
2024-01-29T07:51:54.650Z,84.70
2024-01-29T07:52:54.609Z,84.61
2024-01-29T07:53:54.625Z,84.70
2024-01-29T07:54:54.698Z,84.99
2024-01-29T07:55:54.670Z,84.89
2024-01-29T07:56:54.679Z,83.94
2024-01-29T07:57:54.727Z,84.04
2024-01-29T07:58:54.708Z,84.04
2024-01-29T07:59:54.727Z,84.89
2024-01-29T08:00:54.847Z,84.70
2024-01-29T08:01:54.848Z,84.70
2024-01-29T08:02:54.808Z,85.46
2024-01-29T08:03:54.825Z,85.08
2024-01-29T08:04:54.952Z,85.27
2024-01-29T08:05:54.840Z,85.46
2024-01-29T08:06:54.861Z,85.65
2024-01-29T08:07:54.860Z,85.55
2024-01-29T08:08:54.877Z,85.55
2024-01-29T08:09:54.945Z,85.74
2024-01-29T08:10:54.918Z,85.74
2024-01-29T08:11:54.939Z,85.27
2024-01-29T08:12:54.988Z,86.22
2024-01-29T08:13:55.009Z,86.12
2024-01-29T08:14:55.047Z,86.12
2024-01-29T08:15:55.054Z,86.41
2024-01-29T08:16:55.018Z,86.03
2024-01-29T08:17:55.171Z,85.84
2024-01-29T08:18:55.240Z,85.65
2024-01-29T08:19:55.267Z,86.31
2024-01-29T08:20:55.127Z,86.26
2024-01-29T08:21:55.178Z,85.97
2024-01-29T08:22:55.132Z,86.26
2024-01-29T08:23:55.138Z,86.31
2024-01-29T08:24:55.202Z,86.16
2024-01-29T08:25:55.173Z,86.26
2024-01-29T08:26:55.188Z,86.07
2024-01-29T08:27:55.238Z,85.97
2024-01-29T08:28:55.222Z,86.45
2024-01-29T08:29:55.237Z,86.26
2024-01-29T08:30:55.271Z,86.07
2024-01-29T08:31:55.278Z,86.07
2024-01-29T08:32:55.320Z,86.35
2024-01-29T08:33:55.344Z,86.93
2024-01-29T08:34:55.427Z,87.87
2024-01-29T08:35:55.353Z,86.93
2024-01-29T08:36:55.375Z,87.40
2024-01-29T08:37:55.393Z,87.87
2024-01-29T08:38:55.394Z,88.20
2024-01-29T08:39:55.454Z,88.39
2024-01-29T08:40:55.431Z,88.10
2024-01-29T08:41:55.455Z,88.68
2024-01-29T08:42:55.492Z,88.96
2024-01-29T08:43:55.517Z,89.25
2024-01-29T08:44:55.501Z,88.96
2024-01-29T08:45:55.528Z,89.25
2024-01-29T08:46:55.536Z,89.25
2024-01-29T08:47:55.642Z,89.34
2024-01-29T08:48:55.600Z,89.25
2024-01-29T08:49:55.647Z,90.00
2024-01-29T08:50:55.625Z,90.24
2024-01-29T08:51:55.672Z,90.52
2024-01-29T08:52:55.658Z,90.81
2024-01-29T08:53:55.669Z,90.52
2024-01-29T08:54:55.686Z,90.71
2024-01-29T08:55:56.469Z,90.62
2024-01-29T08:56:55.720Z,90.71
2024-01-29T08:57:55.770Z,90.62
2024-01-29T08:58:55.781Z,91.09
2024-01-29T08:59:55.770Z,91.00
2024-01-29T09:00:56.341Z,91.09
2024-01-29T09:01:55.951Z,91.19
2024-01-29T09:02:55.826Z,91.09
2024-01-29T09:03:55.979Z,91.00
2024-01-29T09:04:55.947Z,91.19
2024-01-29T09:05:55.920Z,91.14
2024-01-29T09:06:55.970Z,91.99
2024-01-29T09:07:57.279Z,90.85
2024-01-29T09:08:55.944Z,91.52
2024-01-29T09:09:55.979Z,91.14
2024-01-29T09:10:55.974Z,91.33
2024-01-29T09:11:56.008Z,91.42
2024-01-29T09:12:56.054Z,91.61
2024-01-29T09:13:56.039Z,91.33
2024-01-29T09:14:56.074Z,91.52
2024-01-29T09:15:56.202Z,91.99
2024-01-29T09:16:56.103Z,91.52
2024-01-29T09:17:56.143Z,91.24
2024-01-29T09:18:56.283Z,91.42
2024-01-29T09:19:56.288Z,91.38
2024-01-29T09:20:56.227Z,91.66
2024-01-29T09:21:56.271Z,92.04
2024-01-29T09:22:56.211Z,92.32
2024-01-29T09:23:56.280Z,91.28
2024-01-29T09:24:56.291Z,91.75
2024-01-29T09:25:56.272Z,92.04
2024-01-29T09:26:56.279Z,91.56
2024-01-29T09:27:56.382Z,91.28
2024-01-29T09:28:56.403Z,91.38
2024-01-29T09:29:56.446Z,91.28
2024-01-29T09:30:56.417Z,91.19
2024-01-29T09:31:56.516Z,91.38
2024-01-29T09:33:06.336Z,90.71
2024-01-29T09:33:56.744Z,90.28
2024-01-29T09:34:56.589Z,91.04
2024-01-29T09:35:56.470Z,91.33
2024-01-29T09:36:56.525Z,90.09
2024-01-29T09:37:56.488Z,90.47
2024-01-29T09:38:56.505Z,90.00
2024-01-29T09:39:56.577Z,90.00
2024-01-29T09:40:56.560Z,90.28
2024-01-29T09:41:56.572Z,89.80
2024-01-29T09:42:56.623Z,90.28
2024-01-29T09:43:56.613Z,90.37
2024-01-29T09:44:56.627Z,89.80
2024-01-29T09:45:56.731Z,89.61
2024-01-29T09:46:56.665Z,89.42
2024-01-29T09:47:56.840Z,89.80
2024-01-29T09:48:56.877Z,89.33
2024-01-29T09:49:56.800Z,88.95
2024-01-29T09:50:56.760Z,89.61
2024-01-29T09:51:56.846Z,89.42
2024-01-29T09:52:59.028Z,89.75
2024-01-29T09:53:56.797Z,89.33
2024-01-29T09:54:56.842Z,89.52
2024-01-29T09:55:56.846Z,89.52
2024-01-29T09:56:56.859Z,89.80
2024-01-29T09:57:56.932Z,89.37
2024-01-29T09:58:56.903Z,89.66
2024-01-29T09:59:56.929Z,89.66
2024-01-29T10:00:57.028Z,89.37
2024-01-29T10:01:57.160Z,89.47
2024-01-29T10:02:57.014Z,89.66
2024-01-29T10:03:57.050Z,89.94
2024-01-29T10:04:57.089Z,90.42
2024-01-29T10:05:57.046Z,90.42
2024-01-29T10:06:57.174Z,90.14
2024-01-29T10:07:57.204Z,90.42
2024-01-29T10:08:57.107Z,89.75
2024-01-29T10:09:57.171Z,89.66
2024-01-29T10:10:57.148Z,89.28
2024-01-29T10:11:57.156Z,89.37
2024-01-29T10:12:57.184Z,89.56
2024-01-29T10:13:57.199Z,89.56
2024-01-29T10:14:57.379Z,89.47
2024-01-29T10:15:57.302Z,89.66
2024-01-29T10:16:57.255Z,89.70
2024-01-29T10:17:57.295Z,88.94
2024-01-29T10:18:57.366Z,89.42
2024-01-29T10:19:57.486Z,89.32
2024-01-29T10:20:57.359Z,89.42
2024-01-29T10:21:57.384Z,88.85
2024-01-29T10:22:57.387Z,89.14
2024-01-29T10:23:57.424Z,89.23
2024-01-29T10:24:57.491Z,88.85
2024-01-29T10:25:57.435Z,88.85
2024-01-29T10:26:57.468Z,89.14
2024-01-29T10:27:57.504Z,88.94
2024-01-29T10:28:57.503Z,88.85
2024-01-29T10:29:57.524Z,89.04
2024-01-29T10:30:58.729Z,88.46
2024-01-29T10:31:57.558Z,88.51
2024-01-29T10:32:57.626Z,88.99
2024-01-29T10:33:57.782Z,88.99
2024-01-29T10:34:57.763Z,88.51
2024-01-29T10:35:57.716Z,88.51
2024-01-29T10:36:57.715Z,88.51
2024-01-29T10:37:57.683Z,88.79
2024-01-29T10:38:57.702Z,88.42
2024-01-29T10:40:00.321Z,88.51
2024-01-29T10:40:57.743Z,89.08
2024-01-29T10:41:57.760Z,89.27
2024-01-29T10:42:57.823Z,89.27
2024-01-29T10:43:57.820Z,88.99
2024-01-29T10:44:57.826Z,88.70
2024-01-29T10:45:57.861Z,88.89
2024-01-29T10:46:57.887Z,88.99
2024-01-29T10:47:58.597Z,88.60
2024-01-29T10:48:57.986Z,89.08
2024-01-29T10:49:58.100Z,88.89
2024-01-29T10:50:57.954Z,89.03
2024-01-29T10:51:58.006Z,88.93
2024-01-29T10:52:57.998Z,88.56
2024-01-29T10:53:58.025Z,88.75
2024-01-29T10:54:58.097Z,88.75
2024-01-29T10:55:58.098Z,88.18
2024-01-29T10:56:58.078Z,88.37
2024-01-29T10:57:58.173Z,88.65
2024-01-29T10:59:00.713Z,88.46
2024-01-29T10:59:58.155Z,88.27
2024-01-29T11:00:58.257Z,88.18
2024-01-29T11:02:03.826Z,88.51
2024-01-29T11:02:58.202Z,88.37
2024-01-29T11:03:58.242Z,88.65
2024-01-29T11:04:58.359Z,88.46
2024-01-29T11:05:58.302Z,88.60
2024-01-29T11:06:58.331Z,88.51
2024-01-29T11:07:58.300Z,88.51
2024-01-29T11:08:58.324Z,87.93
2024-01-29T11:09:58.373Z,88.31
2024-01-29T11:10:59.758Z,87.93
2024-01-29T11:11:58.389Z,87.74
2024-01-29T11:12:58.440Z,87.74
2024-01-29T11:13:58.496Z,87.65
2024-01-29T11:14:58.450Z,87.65
2024-01-29T11:15:58.492Z,87.65
2024-01-29T11:16:58.514Z,87.84
2024-01-29T11:17:58.544Z,87.93
2024-01-29T11:18:58.566Z,87.74
2024-01-29T11:19:58.632Z,88.07
2024-01-29T11:20:58.583Z,87.88
2024-01-29T11:21:58.635Z,87.98
2024-01-29T11:22:58.675Z,87.12
2024-01-29T11:23:58.646Z,87.50
2024-01-29T11:24:58.692Z,87.02
2024-01-29T11:25:58.686Z,87.02
2024-01-29T11:26:58.708Z,86.83
2024-01-29T11:27:58.847Z,87.12
2024-01-29T11:28:58.770Z,87.12
2024-01-29T11:29:58.769Z,87.21
2024-01-29T11:30:58.854Z,86.55
2024-01-29T11:31:58.815Z,86.26
2024-01-29T11:32:58.891Z,86.74
2024-01-29T11:33:58.978Z,86.83
2024-01-29T11:34:59.025Z,86.74
2024-01-29T11:35:58.895Z,86.49
2024-01-29T11:36:58.932Z,86.21
2024-01-29T11:37:58.943Z,86.02
2024-01-29T11:38:58.969Z,86.21
2024-01-29T11:39:59.009Z,86.30
2024-01-29T11:40:59.011Z,85.83
2024-01-29T11:41:59.034Z,86.02
2024-01-29T11:42:59.061Z,85.54
2024-01-29T11:43:59.078Z,85.16
2024-01-29T11:44:59.093Z,85.35
2024-01-29T11:45:59.262Z,84.59
2024-01-29T11:46:59.161Z,84.59
2024-01-29T11:47:59.277Z,84.01
2024-01-29T11:48:59.286Z,84.40
2024-01-29T11:49:59.293Z,84.49
2024-01-29T11:50:59.224Z,84.78
2024-01-29T11:51:59.259Z,84.30
2024-01-29T11:53:05.089Z,84.97
2024-01-29T11:53:59.283Z,84.97
2024-01-29T11:54:59.321Z,84.88
2024-01-29T11:55:59.382Z,84.92
2024-01-29T11:56:59.357Z,84.40
2024-01-29T11:57:59.505Z,84.53
2024-01-29T11:58:59.398Z,84.06
2024-01-29T11:59:59.442Z,84.11
2024-01-29T12:00:59.560Z,83.87
2024-01-29T12:01:59.503Z,83.67
2024-01-29T12:02:59.494Z,83.96
2024-01-29T12:03:59.533Z,84.34
2024-01-29T12:04:59.553Z,84.06
2024-01-29T12:05:59.545Z,84.06
2024-01-29T12:07:01.624Z,84.16
2024-01-29T12:07:59.700Z,83.77
2024-01-29T12:08:59.613Z,83.87
2024-01-29T12:09:59.754Z,84.06
2024-01-29T12:10:59.663Z,83.87
2024-01-29T12:11:59.681Z,83.96
2024-01-29T12:12:59.779Z,84.16
2024-01-29T12:13:59.734Z,83.48
2024-01-29T12:14:59.755Z,83.67
2024-01-29T12:15:59.869Z,83.77
2024-01-29T12:16:59.789Z,83.87
2024-01-29T12:17:59.819Z,84.06
2024-01-29T12:18:59.874Z,84.10
2024-01-29T12:19:59.854Z,83.87
2024-01-29T12:20:59.945Z,83.81
2024-01-29T12:21:59.922Z,84.39
2024-01-29T12:22:59.942Z,83.91
2024-01-29T12:23:59.965Z,83.62
2024-01-29T12:24:59.982Z,83.91
2024-01-29T12:26:00.074Z,83.91
2024-01-29T12:27:00.009Z,83.72
2024-01-29T12:28:00.090Z,83.91
2024-01-29T12:29:00.888Z,83.91
2024-01-29T12:30:00.095Z,84.00
2024-01-29T12:31:00.591Z,84.00
2024-01-29T12:32:00.255Z,83.91
2024-01-29T12:33:00.218Z,83.14
2024-01-29T12:34:00.293Z,83.14
2024-01-29T12:35:00.338Z,83.43
2024-01-29T12:36:00.208Z,83.62
2024-01-29T12:37:00.286Z,84.20
2024-01-29T12:38:00.251Z,84.00
2024-01-29T12:39:00.294Z,83.81
2024-01-29T12:40:00.527Z,83.91
2024-01-29T12:41:00.316Z,83.72
2024-01-29T12:42:00.350Z,83.72
2024-01-29T12:43:00.387Z,83.62
2024-01-29T12:44:00.384Z,83.43
2024-01-29T12:45:00.407Z,83.53
2024-01-29T12:46:00.488Z,83.53
2024-01-29T12:47:00.453Z,83.53
2024-01-29T12:48:00.699Z,83.53
2024-01-29T12:49:00.618Z,83.57
2024-01-29T12:50:00.660Z,83.86
2024-01-29T12:51:00.577Z,83.67
2024-01-29T12:52:00.742Z,83.95
2024-01-29T12:53:00.584Z,83.95
2024-01-29T12:54:00.612Z,83.76
2024-01-29T12:55:00.726Z,83.76
2024-01-29T12:56:00.656Z,83.95
2024-01-29T12:57:00.682Z,83.76
2024-01-29T12:58:00.816Z,83.86
2024-01-29T12:59:00.732Z,83.86
2024-01-29T13:00:00.822Z,83.86
2024-01-29T13:01:00.874Z,84.23